createdAt,value
2022-12-23T00:04:08.910Z,23.20
2022-12-23T00:09:12.095Z,23.60
2022-12-23T00:14:33.931Z,22.10
2022-12-23T00:19:37.044Z,21.70
2022-12-23T00:24:40.047Z,19.80
2022-12-23T00:29:43.773Z,18.90
2022-12-23T00:34:46.884Z,19.60
2022-12-23T00:40:08.825Z,17.40
2022-12-23T00:45:17.572Z,17.70
2022-12-23T00:50:20.573Z,16.30
2022-12-23T00:55:23.893Z,16.60
2022-12-23T01:00:45.665Z,15.00
2022-12-23T01:05:48.739Z,15.50
2022-12-23T01:10:52.258Z,15.50
2022-12-23T01:16:01.577Z,15.50
2022-12-23T01:21:08.311Z,12.80
2022-12-23T01:26:12.197Z,13.80
2022-12-23T01:31:15.279Z,12.80
2022-12-23T01:36:19.373Z,12.30
2022-12-23T01:41:47.162Z,13.00
2022-12-23T01:46:50.578Z,12.20
2022-12-23T01:51:53.692Z,12.10
2022-12-23T01:56:57.513Z,11.60
2022-12-23T02:02:20.440Z,12.10
2022-12-23T02:07:42.745Z,11.40
2022-12-23T02:13:11.560Z,11.80
2022-12-23T02:18:36.066Z,12.20
2022-12-23T02:23:45.112Z,12.80
2022-12-23T02:29:32.259Z,13.20
2022-12-23T02:34:49.393Z,14.10
2022-12-23T02:40:38.890Z,14.40
2022-12-23T02:45:51.674Z,12.30
2022-12-23T02:50:57.726Z,13.10
2022-12-23T02:56:03.681Z,12.80
2022-12-23T03:01:08.329Z,12.00
2022-12-23T03:06:25.461Z,13.50
2022-12-23T03:11:59.023Z,14.40
2022-12-23T03:17:18.067Z,15.50
2022-12-23T03:22:40.940Z,14.80
2022-12-23T03:27:53.275Z,14.90
2022-12-23T03:33:02.939Z,15.70
2022-12-23T03:38:08.990Z,15.80
2022-12-23T03:43:26.250Z,17.20
2022-12-23T03:48:40.932Z,15.80
2022-12-23T03:53:52.408Z,16.50
2022-12-23T03:58:59.510Z,18.00
2022-12-23T04:04:23.795Z,18.60
2022-12-23T04:09:29.245Z,16.90
2022-12-23T04:14:34.261Z,18.60
2022-12-23T04:19:37.487Z,17.40
2022-12-23T04:24:40.577Z,18.90
2022-12-23T04:29:44.097Z,18.40
2022-12-23T04:34:47.117Z,19.50
2022-12-23T04:39:50.211Z,18.80
2022-12-23T04:44:53.242Z,20.00
2022-12-23T04:49:56.652Z,20.10
2022-12-23T04:54:59.752Z,19.60
2022-12-23T05:00:04.155Z,19.20
2022-12-23T05:05:07.567Z,21.60
2022-12-23T05:10:11.110Z,21.80
2022-12-23T05:15:14.123Z,20.80
2022-12-23T05:20:17.337Z,21.00
2022-12-23T05:25:20.544Z,20.00
2022-12-23T05:30:23.650Z,21.80
2022-12-23T05:35:27.947Z,16.60
2022-12-23T05:40:31.995Z,22.10
2022-12-23T05:45:36.615Z,21.00
2022-12-23T05:50:40.499Z,22.00
2022-12-23T05:55:43.495Z,18.90
2022-12-23T06:00:46.501Z,18.50
2022-12-23T06:05:52.491Z,19.10
2022-12-23T06:10:55.488Z,16.80
2022-12-23T06:15:58.500Z,19.90
2022-12-23T06:21:01.393Z,18.40
2022-12-23T06:26:04.405Z,17.60
2022-12-23T06:31:07.410Z,19.50
2022-12-23T06:36:10.729Z,18.50
2022-12-23T06:41:13.837Z,17.80
2022-12-23T06:46:16.875Z,19.10
2022-12-23T06:51:20.049Z,18.30
2022-12-23T06:56:23.154Z,18.10
2022-12-23T07:01:26.255Z,20.60
2022-12-23T07:06:29.580Z,18.90
2022-12-23T07:11:32.591Z,16.90
2022-12-23T07:16:35.640Z,17.90
2022-12-23T07:21:39.823Z,17.50
2022-12-23T07:26:42.896Z,18.00
2022-12-23T07:31:45.996Z,16.30
2022-12-23T07:36:49.048Z,18.00
2022-12-23T07:42:09.041Z,18.90
2022-12-23T07:47:15.746Z,17.00
2022-12-23T07:52:19.200Z,19.80
2022-12-23T07:57:22.171Z,19.60
2022-12-23T08:02:25.711Z,26.20
2022-12-23T08:07:29.114Z,22.90
2022-12-23T08:12:32.832Z,20.10
2022-12-23T08:17:35.841Z,20.60
2022-12-23T08:22:38.845Z,23.80
2022-12-23T08:27:41.855Z,30.30
2022-12-23T08:32:44.967Z,24.00
2022-12-23T08:37:48.068Z,22.90
2022-12-23T08:42:51.280Z,19.80
2022-12-23T08:47:54.395Z,17.10
2022-12-23T08:52:57.608Z,18.20
2022-12-23T08:58:00.597Z,17.20
2022-12-23T09:03:04.222Z,18.90
2022-12-23T09:08:07.875Z,22.60
2022-12-23T09:13:15.216Z,28.70
2022-12-23T09:18:23.179Z,20.90
2022-12-23T09:23:26.386Z,22.20
2022-12-23T09:28:29.391Z,19.90
2022-12-23T09:33:32.313Z,23.30
2022-12-23T09:38:36.200Z,22.00
2022-12-23T09:43:57.874Z,24.80
2022-12-23T09:49:13.584Z,24.30
2022-12-23T09:54:22.528Z,25.70
2022-12-23T09:59:35.360Z,24.30
2022-12-23T10:04:47.682Z,24.90
2022-12-23T10:09:53.202Z,24.00
2022-12-23T10:14:59.604Z,23.90
2022-12-23T10:20:05.578Z,26.20
2022-12-23T10:25:25.536Z,36.80
2022-12-23T10:30:57.240Z,34.20
2022-12-23T10:36:12.950Z,33.90
2022-12-23T10:41:25.237Z,24.70
2022-12-23T10:46:50.736Z,34.00
2022-12-23T10:51:59.197Z,24.40
2022-12-23T10:57:04.764Z,26.30
2022-12-23T11:02:13.761Z,27.90
2022-12-23T11:12:51.980Z,28.90
2022-12-23T11:18:15.122Z,37.60
2022-12-23T11:23:31.366Z,29.00
2022-12-23T11:28:40.940Z,30.20
2022-12-23T11:33:57.762Z,37.90
2022-12-23T11:39:14.485Z,27.80
2022-12-23T11:44:40.008Z,24.40
2022-12-23T11:49:51.934Z,24.30
2022-12-23T11:54:58.935Z,19.50
2022-12-23T12:00:06.364Z,20.80
2022-12-23T12:05:40.866Z,16.80
2022-12-23T12:10:44.788Z,22.30
2022-12-23T12:16:20.154Z,20.60
2022-12-23T12:21:31.595Z,19.70
2022-12-23T12:26:37.428Z,24.40
2022-12-23T12:31:48.648Z,23.80
2022-12-23T12:37:16.066Z,20.00
2022-12-23T12:42:32.874Z,21.40
2022-12-23T12:47:54.166Z,22.30
2022-12-23T12:53:06.529Z,22.20
2022-12-23T13:03:57.739Z,54.90
2022-12-23T13:09:28.771Z,31.10
2022-12-23T13:15:05.767Z,24.20
2022-12-23T13:20:24.036Z,25.00
2022-12-23T13:25:40.370Z,25.20
2022-12-23T13:31:04.672Z,26.60
2022-12-23T13:36:27.186Z,23.40
2022-12-23T13:41:34.648Z,23.60
2022-12-23T13:46:54.131Z,25.70
2022-12-23T13:52:00.115Z,26.20
2022-12-23T13:57:41.898Z,24.70
2022-12-23T14:03:00.241Z,23.60
2022-12-23T14:08:20.486Z,20.80
2022-12-23T14:13:27.423Z,24.00
2022-12-23T14:18:36.235Z,26.20
2022-12-23T14:23:45.793Z,25.00
2022-12-23T14:29:04.353Z,26.50
2022-12-23T14:34:20.356Z,26.90
2022-12-23T14:39:33.024Z,27.20
2022-12-23T14:44:36.015Z,24.20
2022-12-23T14:49:44.240Z,27.30
2022-12-23T14:55:13.268Z,30.70
2022-12-23T15:00:10.631Z,24.20
2022-12-23T15:05:14.364Z,34.10
2022-12-23T15:10:22.331Z,48.80
2022-12-23T15:15:28.960Z,40.40
2022-12-23T15:20:33.204Z,40.90
2022-12-23T15:25:43.101Z,33.50
2022-12-23T15:30:56.793Z,27.60
2022-12-23T15:36:02.851Z,35.90
2022-12-23T15:41:15.052Z,34.40
2022-12-23T15:46:26.949Z,33.30
2022-12-23T15:57:01.429Z,28.00
2022-12-23T16:08:16.268Z,27.90
2022-12-23T16:13:20.980Z,25.70
2022-12-23T16:18:28.614Z,32.80
2022-12-23T16:23:36.644Z,27.50
2022-12-23T16:28:43.408Z,28.10
2022-12-23T16:33:57.409Z,27.70
2022-12-23T16:39:09.627Z,32.10
2022-12-23T16:44:12.760Z,29.60
2022-12-23T16:49:20.856Z,28.90
2022-12-23T16:54:23.975Z,30.70
2022-12-23T16:59:29.349Z,29.10
2022-12-23T17:04:32.468Z,26.70
2022-12-23T17:09:35.446Z,27.20
2022-12-23T17:14:38.974Z,28.40
2022-12-23T17:19:42.793Z,28.60
2022-12-23T17:24:45.791Z,27.90
2022-12-23T17:29:48.908Z,28.50
2022-12-23T17:34:52.012Z,28.60
2022-12-23T17:39:55.145Z,28.60
2022-12-23T17:44:58.131Z,27.20
2022-12-23T17:50:01.134Z,28.40
2022-12-23T17:55:04.304Z,29.40
2022-12-23T18:00:08.409Z,25.00
2022-12-23T18:05:32.640Z,28.20
2022-12-23T18:10:39.596Z,27.80
2022-12-23T18:15:44.452Z,30.80
2022-12-23T18:20:50.818Z,29.90
2022-12-23T18:25:54.442Z,28.00
2022-12-23T18:30:58.644Z,28.00
2022-12-23T18:36:01.734Z,26.50
2022-12-23T18:41:04.791Z,27.90
2022-12-23T18:46:08.171Z,28.40
2022-12-23T18:51:16.638Z,25.70
2022-12-23T18:56:21.362Z,28.20
2022-12-23T19:01:24.807Z,29.20
2022-12-23T19:06:28.013Z,26.20
2022-12-23T19:11:31.975Z,27.50
2022-12-23T19:16:35.011Z,26.10
2022-12-23T19:21:38.256Z,27.50
2022-12-23T19:26:41.269Z,29.10
2022-12-23T19:31:44.914Z,26.60
2022-12-23T19:36:48.307Z,27.80
2022-12-23T19:41:51.642Z,28.70
2022-12-23T19:46:54.721Z,28.90
2022-12-23T19:51:57.836Z,28.80
2022-12-23T19:57:00.745Z,31.20
2022-12-23T20:02:03.809Z,29.00
2022-12-23T20:07:07.063Z,29.30
2022-12-23T20:12:10.185Z,30.00
2022-12-23T20:17:13.171Z,31.30
2022-12-23T20:22:16.282Z,28.90
2022-12-23T20:27:25.966Z,25.60
2022-12-23T20:32:31.006Z,24.50
2022-12-23T20:37:34.002Z,26.80
2022-12-23T20:42:37.830Z,24.20
2022-12-23T20:47:41.265Z,21.90
2022-12-23T20:52:44.564Z,25.40
2022-12-23T20:57:47.576Z,24.30
2022-12-23T21:02:50.670Z,24.80
2022-12-23T21:07:53.684Z,22.30
2022-12-23T21:12:56.687Z,20.20
2022-12-23T21:17:59.900Z,22.50
2022-12-23T21:23:02.909Z,15.40
2022-12-23T21:28:05.999Z,12.30
2022-12-23T21:33:08.925Z,11.10
2022-12-23T21:38:11.922Z,8.10
2022-12-23T21:43:14.832Z,9.40
2022-12-23T21:48:17.734Z,8.40
2022-12-23T21:53:20.739Z,10.00
2022-12-23T21:58:23.744Z,9.70
2022-12-23T22:03:27.675Z,9.40
2022-12-23T22:08:30.711Z,9.10
2022-12-23T22:13:33.691Z,8.60
2022-12-23T22:18:37.253Z,7.70
2022-12-23T22:23:40.521Z,7.00
2022-12-23T22:28:43.528Z,6.00
2022-12-23T22:33:47.294Z,6.10
2022-12-23T22:38:55.681Z,6.30
2022-12-23T22:43:59.453Z,9.40
2022-12-23T22:49:02.517Z,8.50
2022-12-23T22:54:05.627Z,8.60
2022-12-23T22:59:18.259Z,7.80
2022-12-23T23:04:21.556Z,5.20
2022-12-23T23:09:24.578Z,5.80
2022-12-23T23:14:27.476Z,5.70
2022-12-23T23:19:30.592Z,5.60
2022-12-23T23:24:34.380Z,5.90
2022-12-23T23:29:37.346Z,7.20
2022-12-23T23:34:40.838Z,6.40
2022-12-23T23:39:43.953Z,6.60
2022-12-23T23:44:49.010Z,7.00
2022-12-23T23:49:52.106Z,6.50
2022-12-23T23:54:56.342Z,7.00
2022-12-23T23:59:59.357Z,7.90
